WetterOnline ( https://www.wetteronline.de )

Wetter aktuell Rattelsdorf

Aktuelles Wetter: Coburg (323m)

6-stündlich | Neueste Meldungen
Ortszeit Temperatur Wetter
Sa, 15.05. 2:00 7.8° C wolkenlos
Fr, 14.05. 20:00 14.3° C leicht bewölkt
Fr, 14.05. 14:00 14.1° C bewölkt
Fr, 14.05. 8:00 9.5° C bedeckt
Fr, 14.05. 2:00 8.7° C bewölkt
Do, 13.05. 20:00 10.8° C Regen
Do, 13.05. 14:00 13.0° C leichter Regen
Do, 13.05. 8:00 8.7° C bedeckt
Ortszeit Temperatur Wetter
Sa, 15.05. 2:00 7.8° C wolkenlos
Sa, 15.05. 1:50 7.8° C wolkenlos
Sa, 15.05. 1:40 7.2° C leicht bewölkt
Sa, 15.05. 1:30 8.6° C bewölkt
Sa, 15.05. 1:20 8.6° C bewölkt
Sa, 15.05. 1:10 8.0° C bewölkt
Sa, 15.05. 1:00 8.0° C wolkig
Sa, 15.05. 0:30 8.1° C wolkig
Sa, 15.05. 0:00 8.0° C fast wolkenlos
Fr, 14.05. 23:30 8.9° C wolkig
Fr, 14.05. 23:00 9.2° C leicht bewölkt
Ortszeit Relative Feuchte Sichtweite
Sa, 15.05. 2:00 85% >70 km
Fr, 14.05. 20:00 59% >70 km
Fr, 14.05. 14:00 57% 55 km
Fr, 14.05. 8:00 93% 30 km
Fr, 14.05. 2:00 95% 12 km
Do, 13.05. 20:00 92% 5.0 km
Do, 13.05. 14:00 68% 50 km
Do, 13.05. 8:00 95% 8 km
Ortszeit Relative Feuchte Sichtweite
Sa, 15.05. 2:00 85% >70 km
Sa, 15.05. 1:50 85% -
Sa, 15.05. 1:40 87% -
Sa, 15.05. 1:30 83% 65 km
Sa, 15.05. 1:20 83% -
Sa, 15.05. 1:10 86% -
Sa, 15.05. 1:00 85% 65 km
Sa, 15.05. 0:30 85% 65 km
Sa, 15.05. 0:00 85% >70 km
Fr, 14.05. 23:30 81% >70 km
Fr, 14.05. 23:00 80% >70 km
Ortszeit Niederschlagsmenge Niederschlagsart
Sa, 15.05. 2:00 0.0 l/m2 in 6 Std. -
Fr, 14.05. 20:00 0.0 l/m2 in 12 Std. -
Fr, 14.05. 14:00 0.0 l/m2 in 6 Std. -
Fr, 14.05. 8:00 3 l/m2 in 12 Std. Regen
Fr, 14.05. 2:00 3 l/m2 in 6 Std. Regen
Do, 13.05. 20:00 4 l/m2 in 12 Std. Regen
Do, 13.05. 14:00 0.5 l/m2 in 6 Std. Regen
Do, 13.05. 8:00 1 l/m2 in 12 Std. Regen
Ortszeit Niederschlagsmenge Niederschlagsart
Sa, 15.05. 2:00 0.0 l/m2 in 1 Std. -
Sa, 15.05. 1:50 keine Meldung -
Sa, 15.05. 1:40 keine Meldung -
Sa, 15.05. 1:30 0.0 l/m2 in 1 Std. -
Sa, 15.05. 1:20 keine Meldung -
Sa, 15.05. 1:10 keine Meldung -
Sa, 15.05. 1:00 0.0 l/m2 in 1 Std. -
Sa, 15.05. 0:30 0.0 l/m2 in 1 Std. -
Sa, 15.05. 0:00 0.0 l/m2 in 1 Std. -
Fr, 14.05. 23:30 0.0 l/m2 in 1 Std. -
Fr, 14.05. 23:00 0.0 l/m2 in 1 Std. -
Ortszeit Stärke Spitze Richtung
km/h Bft. km/h Grad Sektor
Sa, 15.05. 2:00 4 1 14 10° N
Fr, 14.05. 20:00 11 2 32 250° W
Fr, 14.05. 14:00 14 3 25 260° W
Fr, 14.05. 8:00 7 2 11 260° W
Fr, 14.05. 2:00 0 0 14 - -
Do, 13.05. 20:00 7 2 22 10° N
Do, 13.05. 14:00 14 3 25 340° N
Do, 13.05. 8:00 11 2 18 290° W
Ortszeit Stärke Spitze Richtung
km/h Bft. km/h Grad Sektor
Sa, 15.05. 2:00 4 1 7 10° N
Sa, 15.05. 1:50 4 1 - 10° N
Sa, 15.05. 1:40 2 1 - 60° NO
Sa, 15.05. 1:30 2 1 6 300° NW
Sa, 15.05. 1:20 2 1 - 300° NW
Sa, 15.05. 1:10 4 1 - 300° NW
Sa, 15.05. 1:00 4 1 7 330° NW
Sa, 15.05. 0:30 4 1 7 350° N
Sa, 15.05. 0:00 4 1 7 30° NO
Fr, 14.05. 23:30 4 1 7 330° NW
Fr, 14.05. 23:00 7 2 7 350° N
Ortszeit Untergrenze Bedeckung Gattung
total tief tief mittel hoch
Sa, 15.05. 2:00 - 0/8 0/8 - - -
Fr, 14.05. 20:00 1500 m 2/8 1/8 - - -
Fr, 14.05. 14:00 2100 m 7/8 7/8 - - -
Fr, 14.05. 8:00 180 m 8/8 8/8 - - -
Fr, 14.05. 2:00 2700 m 8/8 5/8 - - -
Do, 13.05. 20:00 690 m 8/8 8/8 - - -
Do, 13.05. 14:00 690 m 8/8 8/8 - - -
Do, 13.05. 8:00 1320 m 8/8 8/8 - - -
Ortszeit Bedeckungsgrad in Achtel und Wolkenuntergrenze
Sa, 15.05. 2:00 keine Wolken
Sa, 15.05. 1:50 keine Wolken
Sa, 15.05. 1:40 2(1500m)
Sa, 15.05. 1:30 7(1500m) 7(2100m)
Sa, 15.05. 1:20 7(1500m) 7(2100m)
Sa, 15.05. 1:10 7(1500m) 7(2100m)
Sa, 15.05. 1:00 6(1500m) 6(2100m)
Sa, 15.05. 0:30 6(2100m) 5(2100m)
Sa, 15.05. 0:00 1(2100m) 2(2400m)
Fr, 14.05. 23:30 1(1800m) 5(2100m)
Fr, 14.05. 23:00 2(1800m) 5(3000m)
Ortszeit Luftdruck NN (hPa) Tendenz (hPa in 3 Std.)
Sa, 15.05. 2:00 1010 + 0,4
Fr, 14.05. 20:00 1007 + 0,2
Fr, 14.05. 14:00 1007 - 0,4
Fr, 14.05. 8:00 1008 + 0,7
Fr, 14.05. 2:00 1007 - 0,4
Do, 13.05. 20:00 1007 + 0,3
Do, 13.05. 14:00 1007 - 1,1
Do, 13.05. 8:00 1008 - 0,5
Ortszeit Luftdruck NN (hPa) Tendenz (hPa in 3 Std.)
Sa, 15.05. 2:00 1010 + 0,4
Sa, 15.05. 1:50 1010 keine Meldung
Sa, 15.05. 1:40 1010 keine Meldung
Sa, 15.05. 1:30 1010 + 0,7
Sa, 15.05. 1:20 1010 keine Meldung
Sa, 15.05. 1:10 1010 keine Meldung
Sa, 15.05. 1:00 1010 + 0,9
Sa, 15.05. 0:30 1010 + 1,1
Sa, 15.05. 0:00 1010 + 1,3
Fr, 14.05. 23:30 1010 + 1,3
Fr, 14.05. 23:00 1009 + 1,1
Ortszeit Schneehöhe (cm)
Sa, 15.05. 2:00 0
Fr, 14.05. 20:00 0
Fr, 14.05. 14:00 0
Fr, 14.05. 8:00 0
Fr, 14.05. 2:00 0
Do, 13.05. 20:00 0
Do, 13.05. 14:00 0
Do, 13.05. 8:00 0
Ortszeit Schneehöhe (cm)
Sa, 15.05. 2:00 0
Sa, 15.05. 1:50 0
Sa, 15.05. 1:40 0
Sa, 15.05. 1:30 0
Sa, 15.05. 1:20 0
Sa, 15.05. 1:10 0
Sa, 15.05. 1:00 0
Sa, 15.05. 0:30 0
Sa, 15.05. 0:00 0
Fr, 14.05. 23:30 0
Fr, 14.05. 23:00 0
Link zu dieser Seite / Seite empfehlen

Das Wetter in ...